createdAt,value
2019-01-27T00:01:38.385Z,145.13
2019-01-27T00:04:23.471Z,161.00
2019-01-27T00:07:08.695Z,146.77
2019-01-27T00:09:53.973Z,131.47
2019-01-27T00:12:39.591Z,137.13
2019-01-27T00:15:24.285Z,145.77
2019-01-27T00:18:09.486Z,147.80
2019-01-27T00:20:54.742Z,147.73
2019-01-27T00:23:40.090Z,155.67
2019-01-27T00:26:25.393Z,146.67
2019-01-27T00:29:10.326Z,135.50
2019-01-27T00:31:55.446Z,130.37
2019-01-27T00:34:40.747Z,140.87
2019-01-27T00:37:25.890Z,129.23
2019-01-27T00:40:14.012Z,135.60
2019-01-27T00:42:59.207Z,133.00
2019-01-27T00:45:44.441Z,135.93
2019-01-27T00:48:29.211Z,130.77
2019-01-27T00:51:14.322Z,130.83
2019-01-27T00:53:59.175Z,122.53
2019-01-27T00:56:44.685Z,120.73
2019-01-27T00:59:29.692Z,113.87
2019-01-27T01:02:15.092Z,120.00
2019-01-27T01:05:00.184Z,123.37
2019-01-27T01:07:45.297Z,118.00
2019-01-27T01:10:30.506Z,114.97
2019-01-27T01:13:15.712Z,118.60
2019-01-27T01:16:01.064Z,119.87
2019-01-27T01:18:46.418Z,117.80
2019-01-27T01:21:31.364Z,116.43
2019-01-27T01:24:16.536Z,128.10
2019-01-27T01:27:01.872Z,123.00
2019-01-27T01:29:47.219Z,111.33
2019-01-27T01:32:32.578Z,121.17
2019-01-27T01:35:17.950Z,111.83
2019-01-27T01:38:03.249Z,116.87
2019-01-27T01:40:48.624Z,119.60
2019-01-27T01:43:33.589Z,124.97
2019-01-27T01:46:18.397Z,118.13
2019-01-27T01:49:03.523Z,122.73
2019-01-27T01:51:48.277Z,121.90
2019-01-27T01:54:33.723Z,134.10
2019-01-27T01:57:18.973Z,139.57
2019-01-27T02:00:07.750Z,130.47
2019-01-27T02:02:52.900Z,132.83
2019-01-27T02:05:38.273Z,113.73
2019-01-27T02:08:23.684Z,131.27
2019-01-27T02:11:09.198Z,135.00
2019-01-27T02:13:54.110Z,136.40
2019-01-27T02:16:39.478Z,126.97
2019-01-27T02:19:24.534Z,137.73
2019-01-27T02:22:10.014Z,135.33
2019-01-27T02:24:55.090Z,140.83
2019-01-27T02:27:40.069Z,133.10
2019-01-27T02:30:26.329Z,133.60
2019-01-27T02:33:11.247Z,148.70
2019-01-27T02:35:56.083Z,132.33
2019-01-27T02:38:41.513Z,129.97
2019-01-27T02:41:26.487Z,136.17
2019-01-27T02:44:11.650Z,137.03
2019-01-27T02:46:56.699Z,128.37
2019-01-27T02:49:41.668Z,146.87
2019-01-27T02:52:26.459Z,141.83
2019-01-27T02:55:11.667Z,151.17
2019-01-27T02:57:56.296Z,152.17
2019-01-27T03:00:41.866Z,141.07
2019-01-27T03:03:27.216Z,146.93
2019-01-27T03:06:19.951Z,141.17
2019-01-27T03:09:08.565Z,147.63
2019-01-27T03:11:53.514Z,160.83
2019-01-27T03:14:38.264Z,178.57
2019-01-27T03:17:23.481Z,186.43
2019-01-27T03:20:10.438Z,178.60
2019-01-27T03:22:55.470Z,167.83
2019-01-27T03:25:40.707Z,156.27
2019-01-27T03:28:25.434Z,154.60
2019-01-27T03:31:10.794Z,158.40
2019-01-27T03:33:56.072Z,161.07
2019-01-27T03:36:41.039Z,165.00
2019-01-27T03:39:26.254Z,149.47
2019-01-27T03:42:11.228Z,154.60
2019-01-27T03:44:56.081Z,153.77
2019-01-27T03:47:41.855Z,162.83
2019-01-27T03:50:27.651Z,161.30
2019-01-27T03:53:12.343Z,164.80
2019-01-27T03:55:57.024Z,170.43
2019-01-27T03:58:42.137Z,163.27
2019-01-27T04:01:26.981Z,160.57
2019-01-27T04:04:12.244Z,163.80
2019-01-27T04:06:57.704Z,165.13
2019-01-27T04:09:43.083Z,170.30
2019-01-27T04:12:28.108Z,159.00
2019-01-27T04:15:12.960Z,174.67
2019-01-27T04:17:57.954Z,172.93
2019-01-27T04:20:42.764Z,167.27
2019-01-27T04:23:28.095Z,152.17
2019-01-27T04:26:13.223Z,163.93
2019-01-27T04:28:58.238Z,160.63
2019-01-27T04:31:43.499Z,158.17
2019-01-27T04:34:28.718Z,148.40
2019-01-27T04:37:13.455Z,159.67
2019-01-27T04:39:58.320Z,157.43
2019-01-27T04:42:43.539Z,160.53
2019-01-27T04:45:33.587Z,156.17
2019-01-27T04:48:19.159Z,154.83
2019-01-27T04:51:03.955Z,162.93
2019-01-27T04:53:49.189Z,153.73
2019-01-27T04:56:34.888Z,168.13
2019-01-27T04:59:20.754Z,165.63
2019-01-27T05:02:05.591Z,158.27
2019-01-27T05:04:50.893Z,172.97
2019-01-27T05:07:36.262Z,167.73
2019-01-27T05:10:21.249Z,171.47
2019-01-27T05:13:06.016Z,176.30
2019-01-27T05:15:50.867Z,165.03
2019-01-27T05:18:36.250Z,169.67
2019-01-27T05:21:21.486Z,175.83
2019-01-27T05:24:06.228Z,165.97
2019-01-27T05:26:51.622Z,178.97
2019-01-27T05:29:37.223Z,184.70
2019-01-27T05:32:22.305Z,186.03
2019-01-27T05:35:07.254Z,189.73
2019-01-27T05:37:52.559Z,187.20
2019-01-27T05:40:38.162Z,184.73
2019-01-27T05:43:23.145Z,186.40
2019-01-27T05:46:08.380Z,194.27
2019-01-27T05:48:54.106Z,206.43
2019-01-27T05:51:39.568Z,190.43
2019-01-27T05:54:24.892Z,192.23
2019-01-27T05:57:10.034Z,201.10
2019-01-27T05:59:54.929Z,200.03
2019-01-27T06:02:39.936Z,222.30
2019-01-27T06:05:24.764Z,207.00
2019-01-27T06:08:09.959Z,194.30
2019-01-27T06:10:55.244Z,211.53
2019-01-27T06:13:41.925Z,218.10
2019-01-27T06:16:27.233Z,207.37
2019-01-27T06:19:12.343Z,224.13
2019-01-27T06:21:58.140Z,209.90
2019-01-27T06:24:43.220Z,220.27
2019-01-27T06:27:28.654Z,210.33
2019-01-27T06:30:27.566Z,232.90
2019-01-27T06:36:28.433Z,225.27
2019-01-27T06:39:13.312Z,224.87
2019-01-27T06:41:58.456Z,221.97
2019-01-27T06:44:44.224Z,233.43
2019-01-27T06:47:29.545Z,223.97
2019-01-27T06:50:14.651Z,240.10
2019-01-27T06:52:59.642Z,239.73
2019-01-27T06:55:45.426Z,228.17
2019-01-27T06:58:32.259Z,221.63
2019-01-27T07:01:19.421Z,229.23
2019-01-27T07:04:08.877Z,221.40
2019-01-27T07:06:58.921Z,226.57
2019-01-27T07:10:02.675Z,223.57
2019-01-27T07:12:55.662Z,224.57
2019-01-27T07:15:45.510Z,218.73
2019-01-27T07:18:35.712Z,227.80
2019-01-27T07:21:25.354Z,216.03
2019-01-27T07:24:27.670Z,220.77
2019-01-27T07:27:17.636Z,214.33
2019-01-27T07:30:26.489Z,213.10
2019-01-27T07:33:30.060Z,213.73
2019-01-27T07:36:19.834Z,208.10
2019-01-27T07:39:17.942Z,226.90
2019-01-27T07:42:10.942Z,216.43
2019-01-27T07:45:06.850Z,212.57
2019-01-27T07:47:56.479Z,225.33
2019-01-27T07:51:01.548Z,230.57
2019-01-27T07:54:08.679Z,224.03
2019-01-27T07:57:04.509Z,227.90
2019-01-27T07:59:54.233Z,228.43
2019-01-27T08:02:44.047Z,225.77
2019-01-27T08:05:31.213Z,229.13
2019-01-27T08:08:18.330Z,239.27
2019-01-27T08:11:17.097Z,231.10
2019-01-27T08:14:04.071Z,245.97
2019-01-27T08:16:53.937Z,248.13
2019-01-27T08:19:41.003Z,238.00
2019-01-27T08:22:33.769Z,234.30
2019-01-27T08:25:26.907Z,223.17
2019-01-27T08:28:33.826Z,242.37
2019-01-27T08:31:27.288Z,228.93
2019-01-27T08:34:31.268Z,220.37
2019-01-27T08:37:31.478Z,228.30
2019-01-27T08:40:21.654Z,233.87
2019-01-27T08:43:23.592Z,214.70
2019-01-27T08:46:10.776Z,229.47
2019-01-27T08:48:59.582Z,229.33
2019-01-27T08:51:45.432Z,233.47
2019-01-27T08:54:30.575Z,225.07
2019-01-27T08:57:16.508Z,215.80
2019-01-27T09:00:02.870Z,204.27
2019-01-27T09:02:56.171Z,199.20
2019-01-27T09:05:49.149Z,190.37
2019-01-27T09:08:52.751Z,194.50
2019-01-27T09:11:55.067Z,192.03
2019-01-27T09:14:42.715Z,183.63
2019-01-27T09:17:32.521Z,207.00
2019-01-27T09:20:22.167Z,190.03
2019-01-27T09:23:12.447Z,200.30
2019-01-27T09:25:59.862Z,191.73
2019-01-27T09:28:46.647Z,180.83
2019-01-27T09:31:33.187Z,180.73
2019-01-27T09:34:23.117Z,178.47
2019-01-27T09:37:16.474Z,192.73
2019-01-27T09:40:06.406Z,180.40
2019-01-27T09:43:02.328Z,178.43
2019-01-27T09:46:05.272Z,176.97
2019-01-27T09:48:52.525Z,176.43
2019-01-27T09:51:39.706Z,168.93
2019-01-27T09:54:29.238Z,172.73
2019-01-27T09:57:28.488Z,182.47
2019-01-27T10:00:23.799Z,180.87
2019-01-27T10:03:11.009Z,172.30
2019-01-27T10:05:58.931Z,167.30
2019-01-27T10:08:46.091Z,185.93
2019-01-27T10:11:33.231Z,175.20
2019-01-27T10:14:29.493Z,170.27
2019-01-27T10:17:16.543Z,166.03
2019-01-27T10:20:12.302Z,175.13
2019-01-27T10:23:02.398Z,187.17
2019-01-27T10:26:06.283Z,179.40
2019-01-27T10:29:02.607Z,173.73
2019-01-27T10:31:55.730Z,174.17
2019-01-27T10:34:43.084Z,167.47
2019-01-27T10:37:39.110Z,166.67
2019-01-27T10:40:26.206Z,177.27
2019-01-27T10:43:13.210Z,186.57
2019-01-27T10:46:03.079Z,182.03
2019-01-27T10:49:05.095Z,175.40
2019-01-27T10:52:00.372Z,165.10
2019-01-27T10:55:02.276Z,182.30
2019-01-27T10:58:07.256Z,173.37
2019-01-27T11:01:12.631Z,164.93
2019-01-27T11:04:02.048Z,161.67
2019-01-27T11:06:57.803Z,176.13
2019-01-27T11:09:59.861Z,165.23
2019-01-27T11:12:52.693Z,161.83
2019-01-27T11:15:45.445Z,164.63
2019-01-27T11:18:48.276Z,160.60
2019-01-27T11:21:46.957Z,145.57
2019-01-27T11:24:33.993Z,171.97
2019-01-27T11:27:32.948Z,140.23
2019-01-27T11:30:31.851Z,150.07
2019-01-27T11:33:24.760Z,156.03
2019-01-27T11:36:20.907Z,157.57
2019-01-27T11:39:08.442Z,148.87
2019-01-27T11:41:55.554Z,159.77
2019-01-27T11:44:57.294Z,162.77
2019-01-27T11:47:53.258Z,164.37
2019-01-27T11:50:39.682Z,158.23
2019-01-27T11:53:24.667Z,150.10
2019-01-27T11:56:09.739Z,156.90
2019-01-27T11:58:54.596Z,162.47
2019-01-27T12:01:39.918Z,166.13
2019-01-27T12:04:25.444Z,160.57
2019-01-27T12:07:10.554Z,157.87
2019-01-27T12:09:55.749Z,159.33
2019-01-27T12:12:40.963Z,153.43
2019-01-27T12:15:26.071Z,153.23
2019-01-27T12:18:11.477Z,153.50
2019-01-27T12:20:56.852Z,144.83
2019-01-27T12:23:42.375Z,157.57
2019-01-27T12:26:27.888Z,151.53
2019-01-27T12:29:12.820Z,163.90
2019-01-27T12:31:57.772Z,164.33
2019-01-27T12:34:43.280Z,174.43
2019-01-27T12:37:28.652Z,172.03
2019-01-27T12:40:17.308Z,171.67
2019-01-27T12:43:02.076Z,164.53
2019-01-27T12:45:47.914Z,174.27
2019-01-27T12:48:33.050Z,167.57
2019-01-27T12:51:18.459Z,166.63
2019-01-27T12:54:03.733Z,171.20
2019-01-27T12:56:48.960Z,172.57
2019-01-27T12:59:34.161Z,172.10
2019-01-27T13:02:19.590Z,175.83
2019-01-27T13:05:04.846Z,177.53
2019-01-27T13:07:50.207Z,182.03
2019-01-27T13:10:35.387Z,181.77
2019-01-27T13:13:20.656Z,176.83
2019-01-27T13:16:05.975Z,178.63
2019-01-27T13:18:51.623Z,187.27
2019-01-27T13:21:36.785Z,181.53
2019-01-27T13:24:22.633Z,185.87
2019-01-27T13:27:07.950Z,175.33
2019-01-27T13:29:53.325Z,188.77
2019-01-27T13:32:38.662Z,179.73
2019-01-27T13:35:23.595Z,194.37
2019-01-27T13:38:14.567Z,183.10
2019-01-27T13:40:59.373Z,174.03
2019-01-27T13:43:44.594Z,186.33
2019-01-27T13:46:30.017Z,191.03
2019-01-27T13:49:16.543Z,173.07
2019-01-27T13:52:01.875Z,181.47
2019-01-27T13:54:48.615Z,177.43
2019-01-27T13:57:33.963Z,187.20
2019-01-27T14:00:31.218Z,172.20
2019-01-27T14:03:17.120Z,175.93
2019-01-27T14:06:02.273Z,174.33
2019-01-27T14:08:47.274Z,168.87
2019-01-27T14:11:32.534Z,178.57
2019-01-27T14:14:19.904Z,167.33
2019-01-27T14:17:04.722Z,169.73
2019-01-27T14:19:50.280Z,170.57
2019-01-27T14:22:35.399Z,162.00
2019-01-27T14:25:27.034Z,164.00
2019-01-27T14:28:11.983Z,164.30
2019-01-27T14:30:56.726Z,173.20
2019-01-27T14:33:42.028Z,169.97
2019-01-27T14:36:27.312Z,165.87
2019-01-27T14:39:12.510Z,164.93
2019-01-27T14:41:57.955Z,166.00
2019-01-27T14:44:43.192Z,162.33
2019-01-27T14:47:28.454Z,165.23
2019-01-27T14:50:20.849Z,169.37
2019-01-27T14:53:06.892Z,152.80
2019-01-27T14:55:52.247Z,162.93
2019-01-27T14:58:37.611Z,157.97
2019-01-27T15:01:22.601Z,157.13
2019-01-27T15:04:07.545Z,157.03
2019-01-27T15:06:52.888Z,165.17
2019-01-27T15:09:38.259Z,189.57
2019-01-27T15:12:24.089Z,166.40
2019-01-27T15:15:12.652Z,155.80
2019-01-27T15:17:57.844Z,178.17
2019-01-27T15:20:46.290Z,169.60
2019-01-27T15:23:31.493Z,191.37
2019-01-27T15:26:16.518Z,238.83
2019-01-27T15:29:01.551Z,255.03
2019-01-27T15:31:46.648Z,238.53
2019-01-27T15:34:31.585Z,202.10
2019-01-27T15:37:17.042Z,171.73
2019-01-27T15:40:02.798Z,183.57
2019-01-27T15:42:48.058Z,173.67
2019-01-27T15:45:33.256Z,164.37
2019-01-27T15:48:18.406Z,145.40
2019-01-27T15:51:03.727Z,149.47
2019-01-27T15:53:49.059Z,140.77
2019-01-27T15:56:34.401Z,139.80
2019-01-27T15:59:19.899Z,142.13
2019-01-27T16:02:04.969Z,136.30
2019-01-27T16:04:50.296Z,126.60
2019-01-27T16:07:35.217Z,127.20
2019-01-27T16:10:25.057Z,157.30
2019-01-27T16:13:10.755Z,133.87
2019-01-27T16:15:56.143Z,128.13
2019-01-27T16:18:41.290Z,132.27
2019-01-27T16:21:27.206Z,125.43
2019-01-27T16:24:14.318Z,125.17
2019-01-27T16:26:59.684Z,126.70
2019-01-27T16:29:49.067Z,119.97
2019-01-27T16:32:34.900Z,134.43
2019-01-27T16:35:20.324Z,129.77
2019-01-27T16:38:05.446Z,135.97
2019-01-27T16:40:50.794Z,124.50
2019-01-27T16:43:35.889Z,127.53
2019-01-27T16:46:21.171Z,117.67
2019-01-27T16:49:06.321Z,114.57
2019-01-27T16:51:51.353Z,128.87
2019-01-27T16:54:36.220Z,114.93
2019-01-27T16:57:21.267Z,113.80
2019-01-27T17:00:21.942Z,111.40
2019-01-27T17:03:07.219Z,110.57
2019-01-27T17:05:52.565Z,116.57
2019-01-27T17:08:37.671Z,112.60
2019-01-27T17:11:22.449Z,105.07
2019-01-27T17:14:07.981Z,104.43
2019-01-27T17:16:53.365Z,109.90
2019-01-27T17:19:38.518Z,108.57
2019-01-27T17:22:23.647Z,108.50
2019-01-27T17:25:10.374Z,107.90
2019-01-27T17:27:55.911Z,113.90
2019-01-27T17:30:41.293Z,111.00
2019-01-27T17:33:27.033Z,106.60
2019-01-27T17:36:12.214Z,106.63
2019-01-27T17:38:57.018Z,103.50
2019-01-27T17:41:43.518Z,105.83
2019-01-27T17:44:29.256Z,104.87
2019-01-27T17:47:14.448Z,110.70
2019-01-27T17:50:01.058Z,104.90
2019-01-27T17:52:46.530Z,113.47
2019-01-27T17:55:36.699Z,98.83
2019-01-27T17:58:34.681Z,107.10
2019-01-27T18:01:36.866Z,113.87
2019-01-27T18:04:40.379Z,104.60
2019-01-27T18:07:27.623Z,104.20
2019-01-27T18:10:14.159Z,100.30
2019-01-27T18:13:00.923Z,98.10
2019-01-27T18:15:45.722Z,111.27
2019-01-27T18:18:30.466Z,104.40
2019-01-27T18:21:15.232Z,103.73
2019-01-27T18:24:00.477Z,100.57
2019-01-27T18:26:45.608Z,103.93
2019-01-27T18:29:30.691Z,95.97
2019-01-27T18:32:16.434Z,98.23
2019-01-27T18:35:01.952Z,95.43
2019-01-27T18:37:47.002Z,98.17
2019-01-27T18:40:31.782Z,106.13
2019-01-27T18:43:16.901Z,98.27
2019-01-27T18:46:01.809Z,99.73
2019-01-27T18:48:47.099Z,104.60
2019-01-27T18:51:32.367Z,96.70
2019-01-27T18:54:28.262Z,100.50
2019-01-27T18:57:15.044Z,92.53
2019-01-27T19:00:02.307Z,92.33
2019-01-27T19:02:51.752Z,103.27
2019-01-27T19:05:39.027Z,99.97
2019-01-27T19:08:36.193Z,94.07
2019-01-27T19:11:38.346Z,100.50
2019-01-27T19:14:27.854Z,97.20
2019-01-27T19:17:27.085Z,100.30
2019-01-27T19:20:17.829Z,105.43
2019-01-27T19:23:04.904Z,105.30
2019-01-27T19:25:57.690Z,101.33
2019-01-27T19:28:44.754Z,102.00
2019-01-27T19:31:32.258Z,99.63
2019-01-27T19:34:31.426Z,94.93
2019-01-27T19:37:24.706Z,92.07
2019-01-27T19:40:14.997Z,101.87
2019-01-27T19:43:05.291Z,104.73
2019-01-27T19:45:52.549Z,89.33
2019-01-27T19:48:45.197Z,98.00
2019-01-27T19:51:37.962Z,95.17
2019-01-27T19:54:33.853Z,98.90
2019-01-27T19:57:23.817Z,96.93
2019-01-27T20:00:13.851Z,95.37
2019-01-27T20:03:00.389Z,94.17
2019-01-27T20:05:49.981Z,98.47
2019-01-27T20:08:55.789Z,101.80
2019-01-27T20:11:51.323Z,102.63
2019-01-27T20:14:44.382Z,103.03
2019-01-27T20:17:48.062Z,105.33
2019-01-27T20:20:47.212Z,108.17
2019-01-27T20:23:52.200Z,105.30
2019-01-27T20:26:55.602Z,109.70
2019-01-27T20:29:48.087Z,98.27
2019-01-27T20:32:41.371Z,103.77
2019-01-27T20:35:28.468Z,96.90
2019-01-27T20:38:19.239Z,103.67
2019-01-27T20:41:18.428Z,104.67
2019-01-27T20:44:08.794Z,104.77
2019-01-27T20:46:55.551Z,99.17
2019-01-27T20:49:51.889Z,96.70
2019-01-27T20:52:43.483Z,104.40
2019-01-27T20:55:36.223Z,105.83
2019-01-27T20:58:29.298Z,100.67
2019-01-27T21:01:34.307Z,91.80
2019-01-27T21:07:37.685Z,96.63
2019-01-27T21:10:36.610Z,96.77
2019-01-27T21:13:23.742Z,98.53
2019-01-27T21:16:10.558Z,98.03
2019-01-27T21:19:00.488Z,100.13
2019-01-27T21:21:48.725Z,93.83
2019-01-27T21:24:33.712Z,99.87
2019-01-27T21:27:19.062Z,95.80
2019-01-27T21:30:10.397Z,97.97
2019-01-27T21:32:55.823Z,96.07
2019-01-27T21:35:40.932Z,103.83
2019-01-27T21:38:26.247Z,92.57
2019-01-27T21:41:11.761Z,87.27
2019-01-27T21:43:56.783Z,95.03
2019-01-27T21:46:41.833Z,102.83
2019-01-27T21:49:28.731Z,95.20
2019-01-27T21:52:13.633Z,99.23
2019-01-27T21:54:58.354Z,96.33
2019-01-27T21:57:43.810Z,91.17
2019-01-27T22:00:29.511Z,98.03
2019-01-27T22:03:14.393Z,92.60
2019-01-27T22:05:59.497Z,95.30
2019-01-27T22:08:44.391Z,94.70
2019-01-27T22:11:29.500Z,92.50
2019-01-27T22:14:14.649Z,90.93
2019-01-27T22:16:59.369Z,92.37
2019-01-27T22:19:44.662Z,91.20
2019-01-27T22:22:29.982Z,90.10
2019-01-27T22:25:14.736Z,95.27
2019-01-27T22:28:00.890Z,88.77
2019-01-27T22:30:45.943Z,89.77
2019-01-27T22:33:30.756Z,93.17
2019-01-27T22:36:15.891Z,91.10
2019-01-27T22:39:01.384Z,97.30
2019-01-27T22:41:46.673Z,99.40
2019-01-27T22:44:31.475Z,86.40
2019-01-27T22:47:16.632Z,97.93
2019-01-27T22:50:01.863Z,88.87
2019-01-27T22:52:47.011Z,90.27
2019-01-27T22:55:31.934Z,90.67
2019-01-27T22:58:17.520Z,86.93
2019-01-27T23:01:04.083Z,86.50
2019-01-27T23:03:48.890Z,91.50
2019-01-27T23:06:33.565Z,85.57
2019-01-27T23:09:18.879Z,84.87
2019-01-27T23:12:04.267Z,77.57
2019-01-27T23:14:49.708Z,76.77
2019-01-27T23:17:34.747Z,87.67
2019-01-27T23:20:20.196Z,77.33
2019-01-27T23:23:05.210Z,78.90
2019-01-27T23:25:50.561Z,81.20
2019-01-27T23:28:35.772Z,80.93
2019-01-27T23:31:21.318Z,79.87
2019-01-27T23:34:06.380Z,76.83
2019-01-27T23:36:51.127Z,80.63
2019-01-27T23:39:36.212Z,85.10
2019-01-27T23:42:21.118Z,78.80
2019-01-27T23:45:09.533Z,81.93
2019-01-27T23:48:14.458Z,76.03
2019-01-27T23:50:59.566Z,78.17
2019-01-27T23:53:44.466Z,79.07
2019-01-27T23:56:29.613Z,75.90
2019-01-27T23:59:14.425Z,80.50
